Time;durP1;ratioP1;P1;durP2;ratioP2;P2;SDS_P1;SDS_P2;PMS_P1;PMS_P2;Temp;Humidity;BMP_temperature;BMP_pressure;BME280_temperature;BME280_humidity;BME280_pressure;Samples;Min_cycle;Max_cycle;Signal;HPM_P1;HPM_P2
2021/08/12 00:00:17;;;;;;;;;12.50;11.00;;;;;;;;5083184;28;45303;-79
2021/08/12 00:02:43;;;;;;;;;11.00;11.00;;;;;;;;5081121;28;45662;-79
2021/08/12 00:05:08;;;;;;;;;11.00;11.00;;;;;;;;5070240;28;47260;-79
2021/08/12 00:07:33;;;;;;;;;12.50;11.25;;;;;;;;5078543;28;45376;-79
2021/08/12 00:10:00;;;;;;;;;10.33;10.33;;;;;;;;5072449;28;45489;-79
2021/08/12 00:12:25;;;;;;;;;13.50;10.75;;;;;;;;5078149;28;45402;-79
2021/08/12 00:14:51;;;;;;;;;14.25;12.00;;;;;;;;5081922;27;45359;-79
2021/08/12 00:17:16;;;;;;;;;12.33;11.33;;;;;;;;5077557;28;46740;-79
2021/08/12 00:19:41;;;;;;;;;12.25;10.00;;;;;;;;5083349;28;45511;-79
2021/08/12 00:22:06;;;;;;;;;9.25;9.25;;;;;;;;5083482;28;45215;-79
2021/08/12 00:24:32;;;;;;;;;13.25;9.75;;;;;;;;5081370;28;45452;-79
2021/08/12 00:26:58;;;;;;;;;9.00;7.67;;;;;;;;5072335;28;45692;-79
2021/08/12 00:29:23;;;;;;;;;12.00;10.75;;;;;;;;5087630;28;45274;-79
2021/08/12 00:31:49;;;;;;;;;10.67;10.33;;;;;;;;5086403;28;45249;-79
2021/08/12 00:34:15;;;;;;;;;12.00;9.00;;;;;;;;5085946;28;45329;-79
2021/08/12 00:36:40;;;;;;;;;10.00;10.00;;;;;;;;5071779;28;45214;-78
2021/08/12 00:39:05;;;;;;;;;10.00;10.00;;;;;;;;5083075;28;45545;-79
2021/08/12 00:41:35;;;;;;;;;14.25;10.25;;;;;;;;5082888;28;45449;-79
2021/08/12 00:44:01;;;;;;;;;11.00;10.50;;;;;;;;5080301;28;46493;-78
2021/08/12 00:46:26;;;;;;;;;11.00;9.33;;;;;;;;5073286;27;45520;-79
2021/08/12 00:48:51;;;;;;;;;12.50;11.00;;;;;;;;5078207;28;45510;-79
2021/08/12 00:51:16;;;;;;;;;11.67;8.33;;;;;;;;5081592;28;45181;-79
2021/08/12 00:53:41;;;;;;;;;10.00;9.33;;;;;;;;5082331;28;45210;-79
2021/08/12 00:56:08;;;;;;;;;8.67;8.67;;;;;;;;5081156;28;45421;-79
2021/08/12 00:58:36;;;;;;;;;9.25;8.50;;;;;;;;5082695;27;45290;-78
2021/08/12 01:01:01;;;;;;;;;15.75;11.50;;;;;;;;5070999;28;45638;-79
2021/08/12 01:03:26;;;;;;;;;11.25;8.50;;;;;;;;5082744;28;46324;-79
2021/08/12 01:05:52;;;;;;;;;14.00;8.33;;;;;;;;5079027;28;45343;-80
2021/08/12 01:08:24;;;;;;;;;12.00;11.00;;;;;;;;5073747;28;45433;-80
2021/08/12 01:10:55;;;;;;;;;14.75;11.00;;;;;;;;5078162;28;45250;-79
2021/08/12 01:13:23;;;;;;;;;11.00;11.00;;;;;;;;5071528;28;45393;-79
2021/08/12 01:15:51;;;;;;;;;14.50;10.75;;;;;;;;5082330;28;45359;-79
2021/08/12 01:18:27;;;;;;;;;10.75;10.50;;;;;;;;5079284;28;45380;-79
2021/08/12 01:21:15;;;;;;;;;10.50;9.75;;;;;;;;5082793;28;45435;-79
2021/08/12 01:23:41;;;;;;;;;14.50;12.00;;;;;;;;5083278;27;46556;-79
2021/08/12 01:26:07;;;;;;;;;13.25;12.00;;;;;;;;5083349;28;45415;-79
2021/08/12 01:28:37;;;;;;;;;16.50;12.25;;;;;;;;5072941;28;45304;-79
2021/08/12 01:31:18;;;;;;;;;15.50;12.75;;;;;;;;5079290;28;45553;-79
2021/08/12 01:34:04;;;;;;;;;14.75;11.00;;;;;;;;5086478;28;46334;-78
2021/08/12 01:36:30;;;;;;;;;17.50;13.75;;;;;;;;5083644;28;45306;-79
2021/08/12 01:38:57;;;;;;;;;18.00;13.00;;;;;;;;5082281;28;45254;-79
2021/08/12 01:41:22;;;;;;;;;10.75;10.75;;;;;;;;5080281;28;45479;-78
2021/08/12 01:43:48;;;;;;;;;17.75;13.50;;;;;;;;5081727;28;46222;-79
2021/08/12 01:46:13;;;;;;;;;16.75;14.50;;;;;;;;5076779;28;45744;-79
2021/08/12 01:48:39;;;;;;;;;16.75;15.00;;;;;;;;5066003;28;45252;-78
2021/08/12 01:51:05;;;;;;;;;17.75;16.25;;;;;;;;5061555;28;45387;-79
2021/08/12 01:53:31;;;;;;;;;23.25;16.25;;;;;;;;5063703;28;46420;-78
2021/08/12 01:55:57;;;;;;;;;20.50;17.75;;;;;;;;5081970;28;45494;-78
2021/08/12 01:58:24;;;;;;;;;20.75;19.50;;;;;;;;5081537;28;45445;-78
2021/08/12 02:00:51;;;;;;;;;23.50;20.50;;;;;;;;5080128;28;45201;-78
2021/08/12 02:03:17;;;;;;;;;26.50;22.00;;;;;;;;5081212;28;46055;-79
2021/08/12 02:05:44;;;;;;;;;21.50;20.50;;;;;;;;5079614;28;45393;-78
2021/08/12 02:08:09;;;;;;;;;30.00;24.25;;;;;;;;5077430;28;45462;-78
2021/08/12 02:10:35;;;;;;;;;24.75;22.00;;;;;;;;5078388;28;45846;-79
2021/08/12 02:13:01;;;;;;;;;28.00;24.33;;;;;;;;5080922;28;45365;-79
2021/08/12 02:15:26;;;;;;;;;26.50;23.00;;;;;;;;5081199;28;45226;-79
2021/08/12 02:17:52;;;;;;;;;24.75;20.75;;;;;;;;5080505;28;45375;-79
2021/08/12 02:20:17;;;;;;;;;23.33;18.33;;;;;;;;5079740;28;45338;-79
2021/08/12 02:22:51;;;;;;;;;21.00;17.25;;;;;;;;5080615;28;46201;-79
2021/08/12 02:25:19;;;;;;;;;20.75;18.00;;;;;;;;5079556;28;45411;-79
2021/08/12 02:27:46;;;;;;;;;22.25;18.00;;;;;;;;5074748;28;45329;-79
2021/08/12 02:30:12;;;;;;;;;18.75;16.50;;;;;;;;5068293;28;45588;-79
2021/08/12 02:32:38;;;;;;;;;16.00;13.50;;;;;;;;5080700;28;45259;-78
2021/08/12 02:35:05;;;;;;;;;16.00;14.75;;;;;;;;5081037;28;45577;-78
2021/08/12 02:37:32;;;;;;;;;21.75;16.25;;;;;;;;5080499;28;45430;-79
2021/08/12 02:39:57;;;;;;;;;18.00;16.00;;;;;;;;5081040;28;45278;-79
2021/08/12 02:42:22;;;;;;;;;16.75;14.50;;;;;;;;5069037;28;46191;-79
2021/08/12 02:44:51;;;;;;;;;22.67;15.00;;;;;;;;5064823;28;45332;-79
2021/08/12 02:47:19;;;;;;;;;13.75;13.75;;;;;;;;5080720;28;45428;-79
2021/08/12 02:49:45;;;;;;;;;13.50;13.25;;;;;;;;5079256;28;45487;-78
2021/08/12 02:52:12;;;;;;;;;16.00;15.25;;;;;;;;5079614;28;46210;-78
2021/08/12 02:54:38;;;;;;;;;16.25;12.00;;;;;;;;5079653;28;45216;-79
2021/08/12 02:57:04;;;;;;;;;15.75;15.00;;;;;;;;5079119;28;45346;-79
2021/08/12 02:59:30;;;;;;;;;13.50;10.00;;;;;;;;5078932;28;45257;-78
2021/08/12 03:01:55;;;;;;;;;13.50;12.75;;;;;;;;5078552;28;45422;-78
2021/08/12 03:04:21;;;;;;;;;14.50;12.00;;;;;;;;5074938;28;45627;-78
2021/08/12 03:06:47;;;;;;;;;15.50;11.50;;;;;;;;5064873;28;45312;-78
2021/08/12 03:09:14;;;;;;;;;11.50;11.25;;;;;;;;5066807;28;45508;-78
2021/08/12 03:11:40;;;;;;;;;13.25;12.00;;;;;;;;5063788;28;46603;-78
2021/08/12 03:14:06;;;;;;;;;14.50;13.00;;;;;;;;5075876;28;45470;-78
2021/08/12 03:16:31;;;;;;;;;14.00;10.50;;;;;;;;5080492;28;45497;-78
2021/08/12 03:18:56;;;;;;;;;10.50;10.25;;;;;;;;5074598;28;45389;-78
2021/08/12 03:21:22;;;;;;;;;14.33;11.00;;;;;;;;5079434;28;45338;-79
2021/08/12 03:23:47;;;;;;;;;12.00;9.00;;;;;;;;5080102;28;45315;-79
2021/08/12 03:26:12;;;;;;;;;11.50;9.00;;;;;;;;5080479;28;45356;-79
2021/08/12 03:28:38;;;;;;;;;11.00;11.00;;;;;;;;5079969;28;45424;-79
2021/08/12 03:31:03;;;;;;;;;13.25;10.00;;;;;;;;5077796;28;45239;-79
2021/08/12 03:33:28;;;;;;;;;12.75;10.50;;;;;;;;5079898;28;45157;-78
2021/08/12 03:35:54;;;;;;;;;10.00;10.00;;;;;;;;5080326;28;45406;-78
2021/08/12 03:38:21;;;;;;;;;13.50;12.50;;;;;;;;5080176;28;45259;-78
2021/08/12 03:40:46;;;;;;;;;8.25;8.00;;;;;;;;5074505;28;46574;-79
2021/08/12 03:43:11;;;;;;;;;12.00;10.50;;;;;;;;5066928;28;45436;-79
2021/08/12 03:45:37;;;;;;;;;13.00;10.75;;;;;;;;5080061;28;45326;-78
2021/08/12 03:48:02;;;;;;;;;12.00;11.00;;;;;;;;5080424;28;45385;-78
2021/08/12 03:50:27;;;;;;;;;12.75;10.75;;;;;;;;5080550;28;45410;-78
2021/08/12 03:52:52;;;;;;;;;13.33;11.00;;;;;;;;5080966;28;45411;-78
2021/08/12 03:55:17;;;;;;;;;11.00;10.00;;;;;;;;5074298;28;45550;-78
2021/08/12 03:57:44;;;;;;;;;10.75;8.75;;;;;;;;5079741;28;45445;-78
2021/08/12 04:00:10;;;;;;;;;13.25;10.75;;;;;;;;5078551;28;47164;-78
2021/08/12 04:02:36;;;;;;;;;11.25;9.75;;;;;;;;5079967;28;45256;-78
2021/08/12 04:05:01;;;;;;;;;12.33;10.33;;;;;;;;5080108;28;45346;-78
2021/08/12 04:07:26;;;;;;;;;15.00;12.00;;;;;;;;5074676;28;45606;-78
2021/08/12 04:09:51;;;;;;;;;9.50;9.50;;;;;;;;5078176;28;45279;-78
2021/08/12 04:12:17;;;;;;;;;11.67;9.67;;;;;;;;5068402;28;45184;-78
2021/08/12 04:14:42;;;;;;;;;10.67;10.67;;;;;;;;5079584;28;45527;-78
2021/08/12 04:17:07;;;;;;;;;10.33;9.33;;;;;;;;5069417;28;45403;-79
2021/08/12 04:19:32;;;;;;;;;13.33;10.33;;;;;;;;5070645;28;46168;-79
2021/08/12 04:21:57;;;;;;;;;12.00;12.00;;;;;;;;5077769;28;45433;-79
2021/08/12 04:24:23;;;;;;;;;10.33;10.00;;;;;;;;5078330;28;45415;-79
2021/08/12 04:26:48;;;;;;;;;12.00;11.50;;;;;;;;5079077;28;45491;-79
2021/08/12 04:29:13;;;;;;;;;11.00;11.00;;;;;;;;5079333;28;45229;-80
2021/08/12 04:31:38;;;;;;;;;12.67;10.67;;;;;;;;5067960;28;45997;-80
2021/08/12 04:34:04;;;;;;;;;11.00;9.50;;;;;;;;5075844;28;45577;-79
2021/08/12 04:36:29;;;;;;;;;9.25;9.25;;;;;;;;5082961;28;45275;-80
2021/08/12 04:38:54;;;;;;;;;12.67;10.00;;;;;;;;5082457;28;45382;-80
2021/08/12 04:41:19;;;;;;;;;9.33;8.00;;;;;;;;5082855;28;45297;-80
2021/08/12 04:43:44;;;;;;;;;12.25;11.00;;;;;;;;5080964;28;45233;-79
2021/08/12 04:46:10;;;;;;;;;10.00;10.00;;;;;;;;5071307;28;45218;-80
2021/08/12 04:48:35;;;;;;;;;11.50;11.00;;;;;;;;5082390;28;45444;-80
2021/08/12 04:51:01;;;;;;;;;14.25;12.00;;;;;;;;5080332;28;45521;-80
2021/08/12 04:53:26;;;;;;;;;12.50;11.00;;;;;;;;5072214;28;45343;-80
2021/08/12 04:55:51;;;;;;;;;11.33;11.00;;;;;;;;5065331;28;45553;-79
2021/08/12 04:58:16;;;;;;;;;11.00;11.00;;;;;;;;5082227;28;46489;-79
2021/08/12 05:00:41;;;;;;;;;16.33;11.00;;;;;;;;5082326;28;45420;-79
2021/08/12 05:03:07;;;;;;;;;6.67;6.67;;;;;;;;5082463;28;45278;-79
2021/08/12 05:05:33;;;;;;;;;12.50;10.50;;;;;;;;5082147;28;45301;-79
2021/08/12 05:07:58;;;;;;;;;10.00;10.00;;;;;;;;5075122;28;45963;-79
2021/08/12 05:10:23;;;;;;;;;14.00;9.75;;;;;;;;5073983;28;45354;-79
2021/08/12 05:12:50;;;;;;;;;15.33;13.00;;;;;;;;5066940;28;45446;-79
2021/08/12 05:15:15;;;;;;;;;14.00;13.25;;;;;;;;5081790;28;45420;-79
2021/08/12 05:17:40;;;;;;;;;17.00;12.00;;;;;;;;5081908;28;45285;-79
2021/08/12 05:20:06;;;;;;;;;16.00;11.00;;;;;;;;5076543;28;45741;-79
2021/08/12 05:22:31;;;;;;;;;10.75;8.75;;;;;;;;5075345;28;45233;-79
2021/08/12 05:24:56;;;;;;;;;14.67;12.33;;;;;;;;5082090;28;45558;-80
2021/08/12 05:27:21;;;;;;;;;12.00;11.00;;;;;;;;5075983;28;45356;-79
2021/08/12 05:29:46;;;;;;;;;11.00;10.00;;;;;;;;5080386;28;45784;-79
2021/08/12 05:32:12;;;;;;;;;15.67;12.00;;;;;;;;5081455;28;45463;-80
2021/08/12 05:34:37;;;;;;;;;11.75;11.25;;;;;;;;5080249;28;45382;-80
2021/08/12 05:37:02;;;;;;;;;11.67;10.33;;;;;;;;5081473;28;45385;-79
2021/08/12 05:39:27;;;;;;;;;13.75;11.00;;;;;;;;5073017;28;45386;-80
2021/08/12 05:41:53;;;;;;;;;11.50;11.00;;;;;;;;5072187;28;45323;-79
2021/08/12 05:44:18;;;;;;;;;17.33;12.00;;;;;;;;5077962;28;45492;-79
2021/08/12 05:46:46;;;;;;;;;16.00;12.75;;;;;;;;5077874;28;47004;-80
2021/08/12 05:49:12;;;;;;;;;16.50;12.50;;;;;;;;5080577;28;45528;-80
2021/08/12 05:51:38;;;;;;;;;14.75;13.00;;;;;;;;5081449;28;45607;-80
2021/08/12 05:54:03;;;;;;;;;14.50;13.50;;;;;;;;5081302;28;45414;-79
2021/08/12 05:56:28;;;;;;;;;21.00;12.00;;;;;;;;5081204;28;45910;-79
2021/08/12 05:58:53;;;;;;;;;15.67;13.00;;;;;;;;5077563;28;45511;-80
2021/08/12 06:01:19;;;;;;;;;13.67;12.00;;;;;;;;5066709;28;45717;-80
2021/08/12 06:03:44;;;;;;;;;14.50;11.50;;;;;;;;5073992;28;45406;-79
2021/08/12 06:06:09;;;;;;;;;18.25;13.25;;;;;;;;5074586;28;45246;-80
2021/08/12 06:08:34;;;;;;;;;14.33;13.00;;;;;;;;5059690;28;45442;-80
2021/08/12 06:11:00;;;;;;;;;17.00;14.67;;;;;;;;5070865;28;45451;-80
2021/08/12 06:13:25;;;;;;;;;14.33;13.33;;;;;;;;5077936;28;45400;-79
2021/08/12 06:15:50;;;;;;;;;13.67;11.33;;;;;;;;5080992;28;45483;-79
2021/08/12 06:18:15;;;;;;;;;14.00;14.00;;;;;;;;5078458;28;45456;-79
2021/08/12 06:20:42;;;;;;;;;15.75;12.50;;;;;;;;5070676;28;45481;-79
2021/08/12 06:23:08;;;;;;;;;16.50;12.50;;;;;;;;5067849;28;45282;-79
2021/08/12 06:25:33;;;;;;;;;13.25;13.25;;;;;;;;5080999;28;46273;-79
2021/08/12 06:27:59;;;;;;;;;13.25;12.50;;;;;;;;5082604;28;45400;-79
2021/08/12 06:30:24;;;;;;;;;16.00;14.00;;;;;;;;5068645;28;45268;-80
2021/08/12 06:32:49;;;;;;;;;16.00;12.67;;;;;;;;5068765;27;45515;-79
2021/08/12 06:35:15;;;;;;;;;16.00;12.25;;;;;;;;5080955;28;46549;-78
2021/08/12 06:37:47;;;;;;;;;18.75;15.25;;;;;;;;5080051;28;45210;-77
2021/08/12 06:40:14;;;;;;;;;15.00;13.25;;;;;;;;5075639;28;45325;-77
2021/08/12 06:42:39;;;;;;;;;17.75;14.50;;;;;;;;5062920;28;45721;-78
2021/08/12 06:45:06;;;;;;;;;17.25;13.25;;;;;;;;5061644;27;46203;-77
2021/08/12 06:47:31;;;;;;;;;17.25;15.25;;;;;;;;5088413;27;45549;-78
2021/08/12 06:49:56;;;;;;;;;15.50;14.00;;;;;;;;5081046;27;45448;-80
2021/08/12 06:52:22;;;;;;;;;16.33;14.00;;;;;;;;5088608;27;45492;-80
2021/08/12 06:54:47;;;;;;;;;19.50;13.25;;;;;;;;5091390;27;46515;-80
2021/08/12 06:57:13;;;;;;;;;13.67;11.67;;;;;;;;5084909;27;45402;-79
2021/08/12 06:59:39;;;;;;;;;13.75;12.75;;;;;;;;5086128;27;44795;-77
2021/08/12 07:02:04;;;;;;;;;16.50;15.75;;;;;;;;5081185;27;46215;-78
2021/08/12 07:04:29;;;;;;;;;15.67;12.67;;;;;;;;5078482;28;46343;-79
2021/08/12 07:06:54;;;;;;;;;15.67;12.33;;;;;;;;5076827;28;45437;-80
2021/08/12 07:09:20;;;;;;;;;14.75;13.50;;;;;;;;5090047;27;45487;-79
2021/08/12 07:11:47;;;;;;;;;19.33;14.67;;;;;;;;5093464;27;45392;-80
2021/08/12 07:14:12;;;;;;;;;14.75;14.25;;;;;;;;5090436;27;45490;-79
2021/08/12 07:16:38;;;;;;;;;15.00;13.25;;;;;;;;5090227;27;45306;-79
2021/08/12 07:19:04;;;;;;;;;14.67;13.33;;;;;;;;5085281;28;44753;-79
2021/08/12 07:21:29;;;;;;;;;16.50;14.75;;;;;;;;5084609;27;45539;-78
2021/08/12 07:23:54;;;;;;;;;19.25;14.25;;;;;;;;5076007;27;46791;-79
2021/08/12 07:26:19;;;;;;;;;16.75;15.00;;;;;;;;5081082;28;45432;-81
2021/08/12 07:28:45;;;;;;;;;17.33;14.33;;;;;;;;5068973;28;45631;-81
2021/08/12 07:31:11;;;;;;;;;14.25;13.25;;;;;;;;5071348;28;45294;-80
2021/08/12 07:33:37;;;;;;;;;12.00;10.50;;;;;;;;5078857;28;46091;-81
2021/08/12 07:36:02;;;;;;;;;17.00;13.50;;;;;;;;5083317;28;45431;-80
2021/08/12 07:38:29;;;;;;;;;15.25;13.50;;;;;;;;5074171;28;45395;-79
2021/08/12 07:40:54;;;;;;;;;18.25;14.00;;;;;;;;5084195;28;45455;-80
2021/08/12 07:43:19;;;;;;;;;17.00;14.33;;;;;;;;5080004;28;46224;-80
2021/08/12 07:45:45;;;;;;;;;15.75;13.25;;;;;;;;5071180;28;45590;-80
2021/08/12 07:48:10;;;;;;;;;15.00;12.25;;;;;;;;5064059;28;45440;-80
2021/08/12 07:50:35;;;;;;;;;18.75;14.00;;;;;;;;5069076;28;45755;-80
2021/08/12 07:53:00;;;;;;;;;16.33;12.33;;;;;;;;5074802;28;46415;-80
2021/08/12 07:55:26;;;;;;;;;19.33;14.00;;;;;;;;5064963;28;45363;-80
2021/08/12 07:57:51;;;;;;;;;21.00;15.75;;;;;;;;5067076;28;45204;-81
2021/08/12 08:00:16;;;;;;;;;20.67;14.67;;;;;;;;5071086;28;45458;-81
2021/08/12 08:02:45;;;;;;;;;14.00;12.75;;;;;;;;5078110;28;46473;-81
2021/08/12 08:05:13;;;;;;;;;17.75;12.25;;;;;;;;5080223;27;45302;-81
2021/08/12 08:07:38;;;;;;;;;15.75;11.00;;;;;;;;5082492;27;44829;-81
2021/08/12 08:10:04;;;;;;;;;15.00;13.00;;;;;;;;5083216;27;45434;-80
2021/08/12 08:12:30;;;;;;;;;14.00;12.00;;;;;;;;5082981;27;48117;-81
2021/08/12 08:14:55;;;;;;;;;12.00;10.33;;;;;;;;5093758;27;45574;-80
2021/08/12 08:17:20;;;;;;;;;12.67;11.33;;;;;;;;5070930;27;45399;-79
2021/08/12 08:19:45;;;;;;;;;15.00;12.00;;;;;;;;5081700;28;45523;-79
2021/08/12 08:22:11;;;;;;;;;13.67;12.00;;;;;;;;5079838;28;45446;-79
2021/08/12 08:24:36;;;;;;;;;15.25;12.25;;;;;;;;5070619;28;45380;-79
2021/08/12 08:27:01;;;;;;;;;15.67;10.33;;;;;;;;5072582;28;45389;-80
2021/08/12 08:29:26;;;;;;;;;14.50;11.00;;;;;;;;5078434;28;45349;-80
2021/08/12 08:31:52;;;;;;;;;11.25;10.50;;;;;;;;5081274;28;45369;-80
2021/08/12 08:34:17;;;;;;;;;13.00;13.00;;;;;;;;5081377;28;45464;-81
2021/08/12 08:36:42;;;;;;;;;14.67;12.67;;;;;;;;5081308;28;45678;-81
2021/08/12 08:39:09;;;;;;;;;11.75;9.50;;;;;;;;5080458;28;45252;-81
2021/08/12 08:41:35;;;;;;;;;11.50;11.25;;;;;;;;5076981;28;45672;-81
2021/08/12 08:44:00;;;;;;;;;12.00;12.00;;;;;;;;5077656;28;45516;-81
2021/08/12 08:46:25;;;;;;;;;17.25;13.00;;;;;;;;5081354;28;45422;-81
2021/08/12 08:48:53;;;;;;;;;12.50;11.25;;;;;;;;5077416;27;45332;-81
2021/08/12 08:51:19;;;;;;;;;12.75;11.50;;;;;;;;5074315;28;45494;-81
2021/08/12 08:53:44;;;;;;;;;10.75;9.75;;;;;;;;5068014;28;45491;-81
2021/08/12 08:56:09;;;;;;;;;12.25;11.25;;;;;;;;5079445;28;45508;-81
2021/08/12 08:58:35;;;;;;;;;16.25;10.25;;;;;;;;5070693;28;45467;-81
2021/08/12 09:01:00;;;;;;;;;14.75;11.00;;;;;;;;5084723;28;46178;-81
2021/08/12 09:03:25;;;;;;;;;11.50;11.50;;;;;;;;5077744;28;45474;-81
2021/08/12 09:05:50;;;;;;;;;12.00;12.00;;;;;;;;5074669;28;45353;-81
2021/08/12 09:08:16;;;;;;;;;16.67;12.67;;;;;;;;5069433;28;45550;-79
2021/08/12 09:10:41;;;;;;;;;13.25;10.50;;;;;;;;5079544;28;46396;-81
2021/08/12 09:13:07;;;;;;;;;16.50;12.25;;;;;;;;5076359;27;45524;-81
2021/08/12 09:15:40;;;;;;;;;14.25;10.75;;;;;;;;5082255;27;45508;-81
2021/08/12 09:18:17;;;;;;;;;10.50;10.25;;;;;;;;5081053;28;45617;-80
2021/08/12 09:20:45;;;;;;;;;10.00;9.75;;;;;;;;5074724;28;45263;-81
2021/08/12 09:23:12;;;;;;;;;13.75;11.00;;;;;;;;5077878;28;45511;-80
2021/08/12 09:25:48;;;;;;;;;15.75;11.75;;;;;;;;5080694;28;45400;-81
2021/08/12 09:28:13;;;;;;;;;15.50;12.00;;;;;;;;5081152;28;45403;-82
2021/08/12 09:30:39;;;;;;;;;11.50;10.00;;;;;;;;5078376;28;45540;-80
2021/08/12 09:33:04;;;;;;;;;13.75;11.75;;;;;;;;5077817;28;45388;-81
2021/08/12 09:35:30;;;;;;;;;14.25;11.50;;;;;;;;5075251;28;45848;-81
2021/08/12 09:38:07;;;;;;;;;16.00;13.75;;;;;;;;5069261;28;45512;-82
2021/08/12 09:40:32;;;;;;;;;14.25;12.00;;;;;;;;5080133;28;46074;-82
2021/08/12 09:43:00;;;;;;;;;15.33;12.67;;;;;;;;5066423;28;45224;-81
2021/08/12 09:45:26;;;;;;;;;12.00;11.75;;;;;;;;5082650;28;45336;-81
2021/08/12 09:47:52;;;;;;;;;13.50;11.25;;;;;;;;5066954;28;45618;-78
2021/08/12 09:50:31;;;;;;;;;22.00;19.75;;;;;;;;5074292;28;45475;-79
2021/08/12 09:52:56;;;;;;;;;17.00;13.25;;;;;;;;5069817;28;45456;-79
2021/08/12 09:55:22;;;;;;;;;14.25;14.25;;;;;;;;5083476;27;45363;-80
2021/08/12 09:57:49;;;;;;;;;13.75;13.00;;;;;;;;5072157;28;45580;-80
2021/08/12 10:00:21;;;;;;;;;16.00;12.75;;;;;;;;5077520;28;45393;-80
2021/08/12 10:02:46;;;;;;;;;15.25;12.25;;;;;;;;5070166;28;45386;-81
2021/08/12 10:05:11;;;;;;;;;10.75;10.25;;;;;;;;5078973;28;45309;-81
2021/08/12 10:07:38;;;;;;;;;12.25;11.25;;;;;;;;5068863;28;45400;-80
2021/08/12 10:10:12;;;;;;;;;14.75;12.50;;;;;;;;5075731;28;46042;-80
2021/08/12 10:12:42;;;;;;;;;17.25;15.00;;;;;;;;5071573;28;45444;-80
2021/08/12 10:15:09;;;;;;;;;15.00;12.00;;;;;;;;5071747;28;45797;-80
2021/08/12 10:17:34;;;;;;;;;12.75;12.75;;;;;;;;5060989;28;45736;-81
2021/08/12 10:19:59;;;;;;;;;10.00;10.00;;;;;;;;5076040;28;45467;-81
2021/08/12 10:22:25;;;;;;;;;15.50;14.00;;;;;;;;5076106;27;45365;-81
2021/08/12 10:24:50;;;;;;;;;17.00;14.75;;;;;;;;5068679;28;45328;-81
2021/08/12 10:27:16;;;;;;;;;18.75;16.00;;;;;;;;5083657;27;45445;-81
2021/08/12 10:29:42;;;;;;;;;15.00;13.33;;;;;;;;5071362;28;45431;-81
2021/08/12 10:32:09;;;;;;;;;17.50;16.00;;;;;;;;5068201;28;45302;-81
2021/08/12 10:34:36;;;;;;;;;15.75;12.00;;;;;;;;5073211;28;45642;-81
2021/08/12 10:37:01;;;;;;;;;13.75;11.75;;;;;;;;5068144;28;45223;-80
2021/08/12 10:39:27;;;;;;;;;14.25;13.75;;;;;;;;5079124;27;45786;-81
2021/08/12 10:41:52;;;;;;;;;12.00;11.50;;;;;;;;5070041;28;45804;-80
2021/08/12 10:44:18;;;;;;;;;12.75;9.50;;;;;;;;5076402;28;45760;-81
2021/08/12 10:46:44;;;;;;;;;10.75;10.00;;;;;;;;5077598;28;45390;-81
2021/08/12 10:49:27;;;;;;;;;12.00;12.00;;;;;;;;5071976;27;45701;-81
2021/08/12 10:52:09;;;;;;;;;12.75;10.75;;;;;;;;5072456;27;45610;-82
2021/08/12 10:54:35;;;;;;;;;15.25;11.75;;;;;;;;5077222;27;45482;-80
2021/08/12 10:57:12;;;;;;;;;15.00;11.50;;;;;;;;5078752;27;45362;-80
2021/08/12 10:59:38;;;;;;;;;13.25;13.25;;;;;;;;5070425;27;45571;-81
2021/08/12 11:02:22;;;;;;;;;11.50;10.00;;;;;;;;5082463;27;45455;-79
2021/08/12 11:04:52;;;;;;;;;15.75;13.00;;;;;;;;5080668;28;45563;-80
2021/08/12 11:07:35;;;;;;;;;10.50;9.25;;;;;;;;5081425;28;45321;-80
2021/08/12 11:10:01;;;;;;;;;11.75;11.25;;;;;;;;5075270;28;46376;-80
2021/08/12 11:12:46;;;;;;;;;12.75;11.75;;;;;;;;5077226;27;45479;-80
2021/08/12 11:15:11;;;;;;;;;11.50;11.50;;;;;;;;5063772;28;45484;-80
2021/08/12 11:17:53;;;;;;;;;9.33;9.33;;;;;;;;5075104;28;44834;-81
2021/08/12 11:20:32;;;;;;;;;11.00;10.50;;;;;;;;5082747;28;45652;-80
2021/08/12 11:23:17;;;;;;;;;11.00;10.50;;;;;;;;5083772;28;45237;-80
2021/08/12 11:25:58;;;;;;;;;11.25;10.00;;;;;;;;5078362;28;45436;-79
2021/08/12 11:28:38;;;;;;;;;14.75;11.00;;;;;;;;5079139;28;45500;-79
2021/08/12 11:31:03;;;;;;;;;12.25;12.25;;;;;;;;5077105;27;45384;-81
2021/08/12 11:33:29;;;;;;;;;11.00;10.00;;;;;;;;5085143;27;45248;-80
2021/08/12 11:36:07;;;;;;;;;12.50;11.00;;;;;;;;5079292;28;45283;-80
2021/08/12 11:38:32;;;;;;;;;12.75;12.75;;;;;;;;5063185;28;45518;-81
2021/08/12 11:40:57;;;;;;;;;10.50;10.25;;;;;;;;5077989;28;46531;-82
2021/08/12 11:43:23;;;;;;;;;13.50;11.75;;;;;;;;5081746;28;45507;-81
2021/08/12 11:45:49;;;;;;;;;17.75;13.25;;;;;;;;5083697;27;45856;-81
2021/08/12 11:48:15;;;;;;;;;12.50;11.50;;;;;;;;5088416;27;45659;-80
2021/08/12 11:50:41;;;;;;;;;16.50;12.75;;;;;;;;5072185;27;46397;-82
2021/08/12 11:53:06;;;;;;;;;12.75;12.25;;;;;;;;5062543;28;45385;-81
2021/08/12 11:55:35;;;;;;;;;12.25;12.00;;;;;;;;5064792;28;45619;-81
2021/08/12 11:58:01;;;;;;;;;11.00;10.75;;;;;;;;5082637;27;45516;-81
2021/08/12 12:00:29;;;;;;;;;12.25;12.00;;;;;;;;5082835;28;45566;-81
2021/08/12 12:02:59;;;;;;;;;14.75;13.50;;;;;;;;5083130;28;45428;-81
2021/08/12 12:05:29;;;;;;;;;15.25;13.00;;;;;;;;5083330;28;45493;-81
2021/08/12 12:07:55;;;;;;;;;13.25;11.25;;;;;;;;5083044;28;45377;-81
2021/08/12 12:10:34;;;;;;;;;11.75;11.50;;;;;;;;5072338;28;45477;-81
2021/08/12 12:13:12;;;;;;;;;14.25;14.00;;;;;;;;5074184;28;45544;-81
2021/08/12 12:15:38;;;;;;;;;12.25;12.25;;;;;;;;5085851;28;45448;-81
2021/08/12 12:18:04;;;;;;;;;12.75;10.00;;;;;;;;5086401;28;45566;-80
2021/08/12 12:20:30;;;;;;;;;17.00;13.50;;;;;;;;5086805;28;45460;-81
2021/08/12 12:22:57;;;;;;;;;11.75;11.75;;;;;;;;5085965;28;45493;-80
2021/08/12 12:25:22;;;;;;;;;14.25;12.50;;;;;;;;5076795;28;45269;-81
2021/08/12 12:27:48;;;;;;;;;11.75;10.50;;;;;;;;5087466;28;45265;-81
2021/08/12 12:30:15;;;;;;;;;14.25;11.25;;;;;;;;5085942;28;45926;-81
2021/08/12 12:32:41;;;;;;;;;11.25;11.00;;;;;;;;5076784;28;45209;-81
2021/08/12 12:35:07;;;;;;;;;10.50;10.50;;;;;;;;5067584;28;45256;-81
2021/08/12 12:37:36;;;;;;;;;16.00;11.50;;;;;;;;5066121;28;45345;-81
2021/08/12 12:40:03;;;;;;;;;10.75;10.50;;;;;;;;5064676;28;46927;-81
2021/08/12 12:42:33;;;;;;;;;14.00;12.75;;;;;;;;5061865;28;45180;-81
2021/08/12 12:45:04;;;;;;;;;13.00;13.00;;;;;;;;5063109;28;45384;-81
2021/08/12 12:47:30;;;;;;;;;13.25;11.75;;;;;;;;5061798;28;45253;-81
2021/08/12 12:50:05;;;;;;;;;14.25;11.50;;;;;;;;5062846;28;46309;-81
2021/08/12 12:52:30;;;;;;;;;14.75;13.50;;;;;;;;5073511;28;45378;-81
2021/08/12 12:54:58;;;;;;;;;13.25;13.25;;;;;;;;5081446;28;45279;-82
2021/08/12 12:57:33;;;;;;;;;16.00;13.00;;;;;;;;5080024;28;45554;-81
2021/08/12 12:59:58;;;;;;;;;12.00;11.50;;;;;;;;5079549;28;47178;-81
2021/08/12 13:02:24;;;;;;;;;15.50;12.25;;;;;;;;5080717;28;45496;-81
2021/08/12 13:04:59;;;;;;;;;18.25;13.50;;;;;;;;5079631;28;45406;-80
2021/08/12 13:07:24;;;;;;;;;11.50;11.50;;;;;;;;5080684;28;45616;-81
2021/08/12 13:09:50;;;;;;;;;17.50;14.00;;;;;;;;5078760;28;47556;-81
2021/08/12 13:12:32;;;;;;;;;15.00;14.00;;;;;;;;5066838;27;45806;-81
2021/08/12 13:15:14;;;;;;;;;14.75;13.00;;;;;;;;5081373;28;45545;-80
2021/08/12 13:17:40;;;;;;;;;14.00;14.00;;;;;;;;5080686;28;45470;-80
2021/08/12 13:20:09;;;;;;;;;16.50;13.00;;;;;;;;5079880;28;46540;-80
2021/08/12 13:22:39;;;;;;;;;12.50;11.25;;;;;;;;5081376;28;45453;-80
2021/08/12 13:25:14;;;;;;;;;13.75;11.25;;;;;;;;5083533;28;45314;-80
2021/08/12 13:27:45;;;;;;;;;15.75;14.75;;;;;;;;5083358;28;45408;-81
2021/08/12 13:30:11;;;;;;;;;14.75;12.50;;;;;;;;5081971;28;45319;-81
2021/08/12 13:32:36;;;;;;;;;12.50;11.50;;;;;;;;5084249;28;45465;-82
2021/08/12 13:35:02;;;;;;;;;14.50;13.25;;;;;;;;5082483;28;45458;-81
2021/08/12 13:37:27;;;;;;;;;14.50;11.75;;;;;;;;5084015;28;45335;-81
2021/08/12 13:39:52;;;;;;;;;5.00;5.00;;;;;;;;5081421;28;47325;-81
2021/08/12 13:42:18;;;;;;;;;14.33;11.00;;;;;;;;5082950;28;45320;-81
2021/08/12 13:44:43;;;;;;;;;12.33;12.00;;;;;;;;5082819;28;45374;-81
2021/08/12 13:47:08;;;;;;;;;14.67;11.67;;;;;;;;5081882;28;45603;-82
2021/08/12 13:49:34;;;;;;;;;12.25;11.00;;;;;;;;5077550;28;45418;-81
2021/08/12 13:52:00;;;;;;;;;17.00;14.25;;;;;;;;5061866;28;45300;-82
2021/08/12 13:54:26;;;;;;;;;13.25;11.25;;;;;;;;5060242;28;45264;-81
2021/08/12 13:56:51;;;;;;;;;9.00;8.25;;;;;;;;5071646;28;45662;-82
2021/08/12 13:59:17;;;;;;;;;11.25;11.25;;;;;;;;5080340;28;46124;-81
2021/08/12 14:01:42;;;;;;;;;13.00;11.25;;;;;;;;5080354;28;45486;-82
2021/08/12 14:04:07;;;;;;;;;13.00;12.75;;;;;;;;5076735;28;45319;-82
2021/08/12 14:06:35;;;;;;;;;14.50;11.50;;;;;;;;5080222;28;45364;-82
2021/08/12 14:09:00;;;;;;;;;15.50;11.25;;;;;;;;5080180;28;45452;-82
2021/08/12 14:11:26;;;;;;;;;17.50;11.75;;;;;;;;5068394;28;45493;-82
2021/08/12 14:13:51;;;;;;;;;13.00;11.00;;;;;;;;5075207;28;45357;-82
2021/08/12 14:16:18;;;;;;;;;11.67;11.33;;;;;;;;5080084;28;45365;-83